Time;durP1;ratioP1;P1;durP2;ratioP2;P2;SDS_P1;SDS_P2;PMS_P1;PMS_P2;Temp;Humidity;BMP_temperature;BMP_pressure;BME280_temperature;BME280_humidity;BME280_pressure;Samples;Min_cycle;Max_cycle;Signal;HPM_P1;HPM_P2
2022/11/19 00:02:08;;;;;;;0.60;0.57;;;;;;;13.78;100.00;94395.50;5111864;28;20439;-52
2022/11/19 00:04:38;;;;;;;0.47;0.43;;;;;;;14.16;100.00;94379.72;5111931;28;20423;-52
2022/11/19 00:07:07;;;;;;;0.50;0.50;;;;;;;14.43;100.00;94368.75;5111660;28;20558;-52
2022/11/19 00:09:35;;;;;;;0.30;0.20;;;;;;;14.61;100.00;94371.09;5112081;28;20507;-52
2022/11/19 00:14:49;;;;;;;2.40;0.30;;;;;;;14.13;100.00;94396.31;5115497;28;20927;-52
2022/11/19 00:17:17;;;;;;;1.03;1.03;;;;;;;14.38;100.00;94404.34;5115017;28;20524;-52
2022/11/19 00:19:47;;;;;;;0.30;0.20;;;;;;;14.45;100.00;94406.53;5114613;28;20435;-52
2022/11/19 00:22:15;;;;;;;0.40;0.40;;;;;;;14.52;100.00;94412.94;5115093;28;20532;-52
2022/11/19 00:24:44;;;;;;;0.40;0.30;;;;;;;14.67;100.00;94402.91;5115350;28;20416;-52
2022/11/19 00:27:12;;;;;;;0.40;0.40;;;;;;;14.66;100.00;94407.47;5115055;28;20480;-52
2022/11/19 00:29:40;;;;;;;1.30;1.27;;;;;;;14.30;100.00;94406.97;5115532;27;20484;-52
2022/11/19 00:32:08;;;;;;;0.80;0.47;;;;;;;14.20;100.00;94410.75;5115528;27;20769;-52
2022/11/19 00:34:37;;;;;;;0.60;0.60;;;;;;;13.95;100.00;94391.00;5115391;28;20429;-52
2022/11/19 00:37:06;;;;;;;1.00;0.90;;;;;;;14.24;100.00;94387.72;5114743;28;20515;-52
2022/11/19 00:39:35;;;;;;;0.40;0.30;;;;;;;14.52;100.00;94398.88;5115037;28;20432;-52
2022/11/19 00:42:03;;;;;;;2.10;0.30;;;;;;;14.26;100.00;94392.72;5115087;28;20429;-52
2022/11/19 00:44:31;;;;;;;0.70;0.30;;;;;;;14.46;100.00;94384.13;5115270;28;20420;-52
2022/11/19 00:47:05;;;;;;;3.33;0.60;;;;;;;14.13;100.00;94380.34;5114886;28;20473;-52
2022/11/19 00:49:33;;;;;;;0.40;0.30;;;;;;;14.13;100.00;94409.66;5115159;28;20435;-52
2022/11/19 00:52:01;;;;;;;0.60;0.50;;;;;;;14.30;100.00;94414.97;5115231;27;20901;-53
2022/11/19 00:54:31;;;;;;;0.37;0.27;;;;;;;14.41;100.00;94402.94;5115097;28;20444;-53
2022/11/19 00:57:00;;;;;;;0.83;0.83;;;;;;;14.50;100.00;94379.72;5115019;28;20451;-53
2022/11/19 00:59:28;;;;;;;0.40;0.33;;;;;;;14.66;100.00;94396.00;5114804;28;20467;-53
2022/11/19 01:01:57;;;;;;;1.17;0.50;;;;;;;14.79;100.00;94398.50;5114722;28;20425;-54
2022/11/19 01:04:25;;;;;;;0.90;0.40;;;;;;;14.84;100.00;94397.53;5114718;28;20453;-53
2022/11/19 01:06:54;;;;;;;0.40;0.30;;;;;;;14.51;100.00;94418.63;5114619;28;20511;-53
2022/11/19 01:09:23;;;;;;;0.40;0.30;;;;;;;14.26;100.00;94428.16;5113636;28;20439;-54
2022/11/19 01:11:53;;;;;;;0.40;0.30;;;;;;;14.55;100.00;94415.00;5114648;28;20416;-53
2022/11/19 01:14:22;;;;;;;0.40;0.30;;;;;;;14.65;100.00;94421.88;5114093;28;20440;-53
2022/11/19 01:16:50;;;;;;;1.03;0.60;;;;;;;14.39;100.00;94437.13;5114421;28;20536;-53
2022/11/19 01:19:19;;;;;;;3.13;0.60;;;;;;;14.34;100.00;94431.97;5114545;28;20473;-53
2022/11/19 01:21:48;;;;;;;0.50;0.43;;;;;;;14.58;100.00;94409.03;5114799;28;20421;-53
2022/11/19 01:24:17;;;;;;;0.70;0.70;;;;;;;14.57;100.00;94406.69;5114689;28;20428;-53
2022/11/19 01:26:45;;;;;;;0.37;0.30;;;;;;;14.47;100.00;94426.44;5114093;28;20466;-53
2022/11/19 01:29:15;;;;;;;0.30;0.20;;;;;;;14.27;100.00;94447.59;5114257;28;20477;-53
2022/11/19 01:31:44;;;;;;;0.63;0.50;;;;;;;14.47;100.00;94429.13;5114246;28;20846;-53
2022/11/19 01:34:12;;;;;;;0.47;0.43;;;;;;;14.55;100.00;94435.53;5114126;28;20424;-53
2022/11/19 01:36:41;;;;;;;0.30;0.20;;;;;;;14.74;100.00;94414.66;5114547;28;20436;-53
2022/11/19 01:39:09;;;;;;;0.37;0.30;;;;;;;14.93;100.00;94436.44;5114443;28;20512;-54
2022/11/19 01:41:38;;;;;;;0.30;0.20;;;;;;;14.89;100.00;94429.38;5114191;28;20483;-54
2022/11/19 01:44:08;;;;;;;0.40;0.40;;;;;;;15.05;100.00;94439.22;5114055;28;20924;-53
2022/11/19 01:46:38;;;;;;;0.97;0.97;;;;;;;14.99;100.00;94439.72;5113934;28;20433;-53
2022/11/19 01:49:10;;;;;;;0.40;0.33;;;;;;;15.08;100.00;94427.91;5114237;28;20552;-53
2022/11/19 01:51:44;;;;;;;0.40;0.30;;;;;;;14.87;100.00;94429.72;5114162;28;20445;-52
2022/11/19 01:54:21;;;;;;;0.30;0.30;;;;;;;14.75;100.00;94436.78;5114177;28;20474;-53
2022/11/19 01:56:50;;;;;;;0.40;0.30;;;;;;;14.52;100.00;94436.94;5114047;28;20458;-53
2022/11/19 01:59:19;;;;;;;0.70;0.70;;;;;;;14.55;100.00;94430.22;5114052;28;20422;-53
2022/11/19 02:01:50;;;;;;;1.13;0.30;;;;;;;14.78;100.00;94425.47;5113550;28;20467;-53
2022/11/19 02:04:20;;;;;;;0.70;0.30;;;;;;;14.38;100.00;94344.91;5113497;28;20422;-53
2022/11/19 02:06:49;;;;;;;0.40;0.30;;;;;;;14.61;100.00;94423.63;5113538;28;20438;-53
2022/11/19 02:09:18;;;;;;;0.50;0.40;;;;;;;14.80;100.00;94424.06;5113404;28;20466;-53
2022/11/19 02:12:10;;;;;;;0.40;0.30;;;;;;;14.71;100.00;94422.50;5113742;28;21045;-53
2022/11/19 02:14:57;;;;;;;0.40;0.30;;;;;;;14.83;100.00;94412.75;5113452;28;20430;-53
2022/11/19 02:17:40;;;;;;;0.40;0.30;;;;;;;14.80;100.00;94436.63;5113586;28;20437;-53
2022/11/19 02:20:46;;;;;;;0.33;0.27;;;;;;;14.75;100.00;94434.88;5112714;27;20851;-53
2022/11/19 02:24:08;;;;;;;0.37;0.23;;;;;;;14.91;100.00;94427.97;5081916;28;20437;-53
2022/11/19 02:27:18;;;;;;;1.07;1.07;;;;;;;14.76;100.00;94454.34;5045542;28;21036;-53
2022/11/19 02:30:03;;;;;;;0.30;0.20;;;;;;;14.74;100.00;94438.69;5050211;28;20440;-54
2022/11/19 02:32:34;;;;;;;0.37;0.23;;;;;;;14.87;100.00;94421.72;5050109;28;20478;-53
2022/11/19 02:35:11;;;;;;;0.53;0.53;;;;;;;15.10;100.00;94441.72;5049723;28;20444;-53
2022/11/19 02:37:47;;;;;;;0.47;0.47;;;;;;;14.94;100.00;94453.22;5078440;28;20437;-53
2022/11/19 02:40:22;;;;;;;0.67;0.67;;;;;;;14.50;100.00;94457.81;5112936;28;20437;-53
2022/11/19 02:42:58;;;;;;;0.40;0.33;;;;;;;14.77;100.00;94448.72;5112923;28;20497;-53
2022/11/19 02:45:33;;;;;;;0.40;0.30;;;;;;;14.95;100.00;94462.81;5113132;28;20496;-54
2022/11/19 02:48:06;;;;;;;0.50;0.40;;;;;;;14.67;100.00;94469.59;5112549;28;20548;-53
2022/11/19 02:50:38;;;;;;;0.40;0.30;;;;;;;14.57;100.00;94460.78;5112590;28;20438;-53
2022/11/19 02:53:06;;;;;;;0.40;0.30;;;;;;;14.77;100.00;94463.94;5112607;28;20453;-53
2022/11/19 02:55:36;;;;;;;0.30;0.30;;;;;;;14.89;100.00;94478.19;5112537;28;20531;-53
2022/11/19 02:58:09;;;;;;;0.40;0.30;;;;;;;14.78;100.00;94471.59;5111867;28;20438;-54
2022/11/19 03:06:20;;;;;;;0.40;0.40;;;;;;;14.40;100.00;94502.66;5112404;28;20444;-54
2022/11/19 03:08:48;;;;;;;0.50;0.40;;;;;;;14.40;100.00;94502.66;5112587;28;20836;-54
2022/11/19 03:11:21;;;;;;;0.40;0.20;;;;;;;14.63;100.00;94506.75;5112650;28;20521;-53
2022/11/19 03:16:55;;;;;;;0.53;0.53;;;;;;;14.40;100.00;94492.00;5072914;28;20450;-54
2022/11/19 03:19:34;;;;;;;0.57;0.57;;;;;;;14.14;100.00;94493.84;5111930;28;20439;-53
2022/11/19 03:22:09;;;;;;;1.80;0.60;;;;;;;14.59;100.00;94511.16;5112251;28;20441;-53
2022/11/19 03:24:41;;;;;;;1.47;0.67;;;;;;;14.82;100.00;94509.13;5112398;28;20787;-53
2022/11/19 03:27:15;;;;;;;0.40;0.30;;;;;;;14.90;100.00;94521.69;5111847;28;20557;-53
2022/11/19 03:29:48;;;;;;;0.67;0.57;;;;;;;14.58;100.00;94537.03;5112103;28;20461;-53
2022/11/19 03:32:22;;;;;;;0.47;0.47;;;;;;;14.68;100.00;94530.59;5112474;28;20420;-53
2022/11/19 03:34:56;;;;;;;0.90;0.80;;;;;;;14.70;100.00;94539.06;5112164;28;20419;-53
2022/11/19 03:37:29;;;;;;;0.40;0.30;;;;;;;14.19;100.00;94549.66;5112094;28;20436;-54
2022/11/19 03:40:00;;;;;;;0.80;0.80;;;;;;;14.28;100.00;94558.44;5112388;28;20452;-53
2022/11/19 03:42:30;;;;;;;0.60;0.40;;;;;;;14.69;100.00;94536.72;5111977;28;20500;-53
2022/11/19 03:45:04;;;;;;;0.80;0.60;;;;;;;14.84;100.00;94536.25;5112041;28;20428;-53
2022/11/19 03:47:36;;;;;;;0.33;0.27;;;;;;;14.90;100.00;94525.09;5116036;28;20446;-53
2022/11/19 03:50:17;;;;;;;0.63;0.63;;;;;;;15.03;100.00;94537.50;5116150;28;20468;-53
2022/11/19 03:52:45;;;;;;;3.33;0.47;;;;;;;14.87;100.00;94525.75;5116326;28;20462;-53
2022/11/19 03:55:15;;;;;;;0.30;0.27;;;;;;;15.09;100.00;94541.59;5116119;28;20457;-54
2022/11/19 03:57:43;;;;;;;0.50;0.40;;;;;;;14.54;100.00;94480.09;5116212;28;20460;-53
2022/11/19 04:00:12;;;;;;;0.70;0.70;;;;;;;14.67;100.00;94555.72;5116317;28;20414;-53
2022/11/19 04:02:42;;;;;;;0.93;0.50;;;;;;;14.48;100.00;94565.88;5115487;28;20519;-54
2022/11/19 04:05:10;;;;;;;0.50;0.40;;;;;;;14.43;100.00;94582.81;5115674;28;20866;-54
2022/11/19 04:07:38;;;;;;;0.40;0.30;;;;;;;14.69;100.00;94580.19;5115124;28;20438;-54
2022/11/19 04:10:07;;;;;;;0.50;0.50;;;;;;;14.87;100.00;94565.78;5115966;28;20825;-53
2022/11/19 04:12:36;;;;;;;0.30;0.30;;;;;;;14.98;100.00;94582.22;5115566;28;20440;-53
2022/11/19 04:15:05;;;;;;;2.50;0.73;;;;;;;14.73;100.00;94589.13;5115615;28;20432;-53
2022/11/19 04:17:33;;;;;;;1.40;1.30;;;;;;;14.68;100.00;94591.94;5115443;28;20438;-53
2022/11/19 04:20:03;;;;;;;0.80;0.80;;;;;;;14.42;100.00;94599.91;5115618;28;20512;-53
2022/11/19 04:22:31;;;;;;;1.83;1.30;;;;;;;14.12;100.00;94603.38;5115642;28;20428;-54
2022/11/19 04:24:59;;;;;;;7.20;2.03;;;;;;;14.36;100.00;94603.81;5115447;28;20435;-53
2022/11/19 04:27:29;;;;;;;0.40;0.30;;;;;;;14.68;100.00;94609.81;5115447;28;20569;-53
2022/11/19 04:29:57;;;;;;;1.23;1.13;;;;;;;14.87;100.00;94613.00;5115430;28;20482;-53
2022/11/19 04:32:25;;;;;;;0.40;0.30;;;;;;;14.99;100.00;94621.16;5115506;28;20429;-53
2022/11/19 04:34:54;;;;;;;1.17;0.70;;;;;;;15.00;100.00;94612.84;5115517;28;20932;-54
2022/11/19 04:37:23;;;;;;;2.60;0.77;;;;;;;15.04;100.00;94603.13;5115656;28;20434;-53
2022/11/19 04:39:51;;;;;;;1.00;0.90;;;;;;;14.76;100.00;94612.53;5115678;28;20784;-54
2022/11/19 04:42:20;;;;;;;3.70;0.47;;;;;;;14.82;100.00;94610.50;5115516;28;20438;-54
2022/11/19 04:44:48;;;;;;;1.70;0.97;;;;;;;14.91;100.00;94625.41;5115371;28;20423;-54
2022/11/19 04:47:16;;;;;;;6.63;1.27;;;;;;;14.99;100.00;94624.63;5115396;27;20431;-53
2022/11/19 04:49:45;;;;;;;1.90;1.20;;;;;;;14.97;100.00;94623.38;5114569;28;20498;-54
2022/11/19 04:52:13;;;;;;;0.80;0.60;;;;;;;14.89;100.00;94622.28;5115098;28;20418;-54
2022/11/19 04:54:43;;;;;;;0.40;0.30;;;;;;;14.83;100.00;94626.16;5114742;28;20437;-53
2022/11/19 04:57:11;;;;;;;0.53;0.50;;;;;;;14.86;100.00;94633.56;5114570;28;20437;-53
2022/11/19 04:59:39;;;;;;;0.80;0.50;;;;;;;14.57;100.00;94631.47;5115177;28;20802;-53
2022/11/19 05:02:07;;;;;;;0.50;0.40;;;;;;;14.67;100.00;94646.41;5115078;28;20433;-53
2022/11/19 05:04:36;;;;;;;0.60;0.50;;;;;;;14.76;100.00;94654.41;5114654;28;20434;-53
2022/11/19 05:07:04;;;;;;;0.40;0.40;;;;;;;14.72;100.00;94659.59;5114221;28;20514;-53
2022/11/19 05:09:32;;;;;;;0.40;0.30;;;;;;;14.80;100.00;94660.72;5114124;27;20544;-53
2022/11/19 05:12:02;;;;;;;0.50;0.30;;;;;;;14.75;100.00;94668.84;5114020;28;20420;-53
2022/11/19 05:14:30;;;;;;;0.30;0.20;;;;;;;14.75;100.00;94666.94;5114576;28;20867;-53
2022/11/19 05:16:58;;;;;;;0.40;0.40;;;;;;;14.47;100.00;94677.06;5114377;28;20420;-53
2022/11/19 05:19:27;;;;;;;1.00;0.37;;;;;;;13.91;100.00;94676.97;5114485;28;20524;-53
2022/11/19 05:21:55;;;;;;;0.50;0.40;;;;;;;13.80;100.00;94672.97;5114517;28;20421;-53
2022/11/19 05:24:23;;;;;;;0.50;0.40;;;;;;;13.88;100.00;94670.38;5114702;28;20425;-53
2022/11/19 05:26:51;;;;;;;1.00;1.00;;;;;;;14.20;100.00;94669.25;5113765;28;20508;-53
2022/11/19 05:29:21;;;;;;;0.70;0.43;;;;;;;13.93;100.00;94686.22;5114111;28;20519;-53
2022/11/19 05:31:49;;;;;;;1.27;1.27;;;;;;;13.55;100.00;94694.88;5114179;28;21062;-53
2022/11/19 05:34:18;;;;;;;2.30;0.83;;;;;;;13.61;100.00;94688.34;5114078;28;20518;-52
2022/11/19 05:36:46;;;;;;;1.87;1.60;;;;;;;13.73;100.00;94702.69;5113194;28;20514;-52
2022/11/19 05:39:14;;;;;;;1.90;1.80;;;;;;;13.78;100.00;94710.56;5114368;28;20435;-53
2022/11/19 05:41:49;;;;;;;1.30;1.20;;;;;;;13.60;100.00;94708.88;5093773;28;20423;-55
2022/11/19 05:44:18;;;;;;;2.00;1.63;;;;;;;13.54;100.00;94691.44;5093870;28;20461;-53
2022/11/19 05:46:48;;;;;;;3.53;0.90;;;;;;;13.88;100.00;94723.63;5092985;28;20783;-53
2022/11/19 05:49:16;;;;;;;8.73;1.33;;;;;;;13.93;100.00;94741.38;5093461;28;20966;-53
2022/11/19 05:51:46;;;;;;;2.60;1.13;;;;;;;13.88;100.00;94744.94;5093499;28;20803;-53
2022/11/19 05:54:14;;;;;;;1.37;1.37;;;;;;;14.10;100.00;94749.47;5093757;28;20433;-53
2022/11/19 05:56:43;;;;;;;0.40;0.40;;;;;;;14.54;100.00;94743.31;5093474;28;20423;-53
2022/11/19 05:59:11;;;;;;;0.40;0.30;;;;;;;14.90;100.00;94749.22;5093438;28;20437;-53
2022/11/19 06:01:39;;;;;;;2.83;1.00;;;;;;;15.15;100.00;94758.41;5093566;28;20807;-54
2022/11/19 06:04:10;;;;;;;0.80;0.80;;;;;;;15.24;100.00;94756.53;5092881;28;20509;-54
2022/11/19 06:06:38;;;;;;;1.00;1.00;;;;;;;14.92;100.00;94779.06;5093251;28;20949;-52
2022/11/19 06:09:07;;;;;;;3.10;1.70;;;;;;;14.95;100.00;94770.44;5092270;28;20637;-53
2022/11/19 06:11:47;;;;;;;5.07;0.80;;;;;;;15.29;100.00;94759.06;5093035;28;20806;-52
2022/11/19 06:14:17;;;;;;;7.33;2.20;;;;;;;14.88;100.00;94777.31;5093205;28;20434;-53
2022/11/19 06:16:45;;;;;;;9.60;2.40;;;;;;;15.04;100.00;94792.59;5093021;28;20431;-53
2022/11/19 06:19:15;;;;;;;2.40;2.03;;;;;;;15.36;100.00;94795.97;5092833;28;20522;-53
2022/11/19 06:21:43;;;;;;;1.37;1.37;;;;;;;15.28;100.00;94778.84;5092969;28;20469;-53
2022/11/19 06:24:13;;;;;;;1.90;1.67;;;;;;;15.42;100.00;94806.22;5092905;28;20785;-53
2022/11/19 06:26:41;;;;;;;3.23;2.50;;;;;;;15.07;100.00;94800.00;5092371;28;20558;-52
2022/11/19 06:29:12;;;;;;;0.50;0.37;;;;;;;15.33;100.00;94817.97;5092565;28;20541;-54
2022/11/19 06:31:41;;;;;;;0.50;0.40;;;;;;;15.46;100.00;94823.19;5104587;28;20477;-54
2022/11/19 06:34:09;;;;;;;0.40;0.40;;;;;;;15.49;100.00;94819.13;5112943;28;20428;-54
2022/11/19 06:36:39;;;;;;;0.63;0.63;;;;;;;15.35;100.00;94815.78;5113176;28;20474;-54
2022/11/19 06:39:14;;;;;;;0.60;0.50;;;;;;;15.76;100.00;94811.63;5112917;28;20453;-54
2022/11/19 06:41:42;;;;;;;6.07;0.57;;;;;;;16.51;100.00;94799.63;5112663;28;20531;-54
2022/11/19 06:44:11;;;;;;;1.17;1.17;;;;;;;17.25;100.00;94804.56;5112772;28;20522;-54
2022/11/19 06:46:56;;;;;;;1.53;1.43;;;;;;;18.03;100.00;94803.75;5112738;28;20972;-55
2022/11/19 06:49:25;;;;;;;1.33;1.13;;;;;;;18.32;100.00;94808.22;5111812;28;20806;-56
2022/11/19 06:51:55;;;;;;;2.17;2.07;;;;;;;18.72;100.00;94797.78;5112186;28;20486;-55
2022/11/19 06:54:23;;;;;;;2.50;2.27;;;;;;;19.06;100.00;94801.94;5112394;28;20435;-56
2022/11/19 06:56:52;;;;;;;2.40;2.30;;;;;;;18.95;100.00;94801.59;5112880;28;20455;-57
2022/11/19 06:59:20;;;;;;;3.90;2.30;;;;;;;18.81;100.00;94815.34;5112525;28;20470;-56
2022/11/19 07:01:51;;;;;;;1.40;1.30;;;;;;;18.71;100.00;94821.16;5112275;28;20440;-56
2022/11/19 07:04:19;;;;;;;1.00;1.00;;;;;;;18.71;100.00;94826.50;5112290;28;20488;-56
2022/11/19 07:06:48;;;;;;;2.90;2.40;;;;;;;18.28;100.00;94824.22;5112128;28;20887;-56
2022/11/19 07:09:18;;;;;;;1.20;1.20;;;;;;;17.56;100.00;94829.16;5111497;28;20428;-56
2022/11/19 07:11:46;;;;;;;1.30;0.77;;;;;;;17.58;100.00;94832.31;5112141;28;20503;-56
2022/11/19 07:14:15;;;;;;;0.80;0.80;;;;;;;17.55;100.00;94838.31;5112096;28;20431;-56
2022/11/19 07:16:43;;;;;;;1.40;1.33;;;;;;;17.55;100.00;94857.88;5112281;28;20767;-56
2022/11/19 07:19:11;;;;;;;0.80;0.77;;;;;;;17.56;100.00;94863.97;5112014;28;20428;-56
2022/11/19 07:21:39;;;;;;;0.77;0.50;;;;;;;17.24;100.00;94862.69;5112480;28;20452;-57
2022/11/19 07:24:09;;;;;;;1.47;1.37;;;;;;;17.08;100.00;94873.16;5112059;28;20441;-56
2022/11/19 07:26:39;;;;;;;1.10;1.00;;;;;;;17.51;100.00;94872.19;5111907;28;20571;-56
2022/11/19 07:29:08;;;;;;;1.63;1.53;;;;;;;17.73;100.00;94870.03;5112041;28;20428;-56
2022/11/19 07:31:36;;;;;;;1.60;0.97;;;;;;;17.50;100.00;94868.75;5112121;28;20563;-56
2022/11/19 07:34:07;;;;;;;0.93;0.83;;;;;;;17.25;100.00;94874.19;5111984;28;20429;-56
2022/11/19 07:36:35;;;;;;;1.80;1.70;;;;;;;17.15;100.00;94884.16;5112060;28;20938;-56
2022/11/19 07:39:04;;;;;;;0.60;0.47;;;;;;;17.36;100.00;94868.16;5111726;28;20443;-56
2022/11/19 07:44:19;;;;;;;0.70;0.60;;;;;;;18.64;100.00;94874.59;5112306;28;21075;-56
2022/11/19 07:46:47;;;;;;;1.70;1.60;;;;;;;19.15;100.00;94883.22;5112245;28;20514;-56
2022/11/19 07:49:16;;;;;;;1.87;1.77;;;;;;;19.28;98.42;94879.44;5111848;28;20791;-56
2022/11/19 07:51:44;;;;;;;2.10;2.00;;;;;;;19.18;99.15;94880.66;5111526;28;20979;-56
2022/11/19 07:54:14;;;;;;;1.30;0.90;;;;;;;19.17;98.69;94884.47;5112242;28;20419;-56
2022/11/19 07:56:42;;;;;;;0.83;0.50;;;;;;;19.12;96.66;94891.94;5111793;28;20424;-56
2022/11/19 07:59:10;;;;;;;1.97;1.70;;;;;;;18.92;96.20;94893.59;5111821;28;20439;-56
2022/11/19 08:01:40;;;;;;;0.50;0.50;;;;;;;18.99;100.00;94889.25;5111937;28;20424;-56
2022/11/19 08:04:08;;;;;;;0.57;0.57;;;;;;;18.85;99.27;94896.00;5111118;28;20428;-57
2022/11/19 08:06:37;;;;;;;0.57;0.47;;;;;;;18.96;97.11;94903.34;5111691;28;20415;-56
2022/11/19 08:09:06;;;;;;;1.13;1.03;;;;;;;18.62;98.16;94913.63;5111715;28;20438;-56
2022/11/19 08:11:34;;;;;;;1.87;1.63;;;;;;;18.35;100.00;94910.31;5111463;28;20459;-56
2022/11/19 08:14:02;;;;;;;1.77;1.47;;;;;;;18.38;100.00;94912.34;5111805;28;20438;-56
2022/11/19 08:19:20;;;;;;;0.77;0.77;;;;;;;18.86;96.74;94925.22;5111857;28;20523;-56
2022/11/19 08:21:50;;;;;;;0.53;0.53;;;;;;;18.84;95.35;94897.94;5111972;28;20423;-56
2022/11/19 08:24:19;;;;;;;1.47;1.43;;;;;;;18.85;95.55;94915.59;5111620;28;20432;-56
2022/11/19 08:26:49;;;;;;;1.40;1.30;;;;;;;18.96;99.24;94915.97;5111571;28;20586;-56
2022/11/19 08:29:20;;;;;;;0.43;0.30;;;;;;;19.06;94.45;94915.56;5111756;28;20874;-56
2022/11/19 08:31:48;;;;;;;0.63;0.60;;;;;;;18.85;92.29;94906.75;5112814;28;20485;-56
2022/11/19 08:34:17;;;;;;;1.30;1.20;;;;;;;18.68;92.50;94859.38;5115687;28;20426;-56
2022/11/19 08:36:47;;;;;;;0.60;0.57;;;;;;;18.89;91.63;94924.56;5115420;28;20428;-56
2022/11/19 08:39:15;;;;;;;0.40;0.33;;;;;;;18.90;88.18;94922.66;5115295;28;20907;-56
2022/11/19 08:44:29;;;;;;;0.60;0.30;;;;;;;18.75;90.46;94918.69;5115464;28;20423;-56
2022/11/19 08:46:58;;;;;;;0.50;0.40;;;;;;;18.79;94.56;94919.63;5115270;28;20419;-56
2022/11/19 08:49:26;;;;;;;0.57;0.53;;;;;;;18.89;94.70;94913.84;5115213;28;20436;-56
2022/11/19 08:51:57;;;;;;;0.87;0.87;;;;;;;18.89;95.15;94929.16;5114581;28;20464;-56
2022/11/19 08:54:25;;;;;;;1.17;1.07;;;;;;;18.92;92.58;94925.81;5115199;28;20435;-56
2022/11/19 08:56:53;;;;;;;0.40;0.30;;;;;;;18.96;93.47;94914.06;5113701;28;20531;-56
2022/11/19 08:59:22;;;;;;;0.60;0.30;;;;;;;18.71;90.61;94925.06;5114740;28;20442;-56
2022/11/19 09:01:50;;;;;;;0.97;0.97;;;;;;;18.52;93.55;94911.34;5113535;28;20488;-55
2022/11/19 09:04:18;;;;;;;0.87;0.87;;;;;;;18.71;94.38;94917.00;5114839;28;20755;-57
2022/11/19 09:06:47;;;;;;;0.50;0.50;;;;;;;19.01;94.09;94921.13;5114684;28;20924;-56
2022/11/19 09:09:16;;;;;;;0.50;0.50;;;;;;;19.09;92.99;94922.16;5114743;28;20979;-56
2022/11/19 09:11:45;;;;;;;1.53;1.37;;;;;;;19.17;91.30;94916.72;5114847;28;20471;-56
2022/11/19 09:14:13;;;;;;;0.60;0.30;;;;;;;18.40;90.68;94775.97;5114545;28;20895;-53
2022/11/19 09:16:41;;;;;;;0.50;0.40;;;;;;;19.33;90.26;94927.56;5114537;28;20437;-57
2022/11/19 09:19:09;;;;;;;0.50;0.50;;;;;;;19.43;87.19;94925.28;5114714;28;20434;-56
2022/11/19 09:21:38;;;;;;;0.50;0.40;;;;;;;19.40;85.94;94919.81;5114243;28;20527;-58
2022/11/19 09:24:06;;;;;;;0.50;0.50;;;;;;;19.46;84.50;94918.44;5114409;27;20528;-58
2022/11/19 09:26:36;;;;;;;2.60;0.40;;;;;;;19.17;84.57;94881.00;5114271;28;20463;-58
2022/11/19 09:29:04;;;;;;;1.70;0.90;;;;;;;19.46;84.35;94911.19;5114304;27;20438;-57
2022/11/19 09:31:32;;;;;;;0.57;0.50;;;;;;;19.47;86.25;94909.28;5114096;28;20475;-57
2022/11/19 09:34:01;;;;;;;2.00;0.67;;;;;;;19.30;85.82;94875.28;5113807;28;20462;-57
2022/11/19 09:36:29;;;;;;;0.50;0.50;;;;;;;19.78;87.28;94906.84;5114642;28;20427;-57
2022/11/19 09:38:58;;;;;;;0.80;0.80;;;;;;;19.87;84.07;94899.44;5114091;28;20427;-57
2022/11/19 09:41:45;;;;;;;0.50;0.50;;;;;;;20.54;83.67;94889.91;5114118;28;20432;-56
2022/11/19 09:44:46;;;;;;;1.23;0.83;;;;;;;20.35;80.40;94885.13;5112654;28;20474;-56
2022/11/19 09:47:23;;;;;;;1.10;0.40;;;;;;;20.43;77.33;94883.44;5113921;28;20427;-56
2022/11/19 09:50:01;;;;;;;1.10;1.03;;;;;;;20.87;78.39;94866.19;5113347;28;20790;-56
2022/11/19 09:52:33;;;;;;;0.80;0.80;;;;;;;20.65;74.77;94808.28;5112710;28;20460;-55
2022/11/19 09:55:02;;;;;;;0.60;0.60;;;;;;;21.65;74.11;94900.53;5113348;28;20923;-56
2022/11/19 09:57:42;;;;;;;0.50;0.30;;;;;;;22.05;76.66;94893.03;5113993;27;20816;-56
2022/11/19 10:00:17;;;;;;;3.70;1.17;;;;;;;22.81;72.43;94889.66;5113255;28;20523;-55
2022/11/19 10:02:45;;;;;;;0.70;0.70;;;;;;;22.77;68.24;94886.09;5113517;28;20522;-55
2022/11/19 10:05:15;;;;;;;10.67;0.57;;;;;;;23.00;69.45;94883.44;5113438;28;20431;-55
2022/11/19 10:07:54;;;;;;;0.50;0.40;;;;;;;22.37;69.25;94788.41;5113542;28;20435;-55
2022/11/19 10:10:40;;;;;;;1.13;1.03;;;;;;;22.89;69.12;94887.88;5113226;28;20435;-56
2022/11/19 10:13:24;;;;;;;0.50;0.50;;;;;;;22.74;69.43;94878.72;5113280;28;20483;-54
2022/11/19 10:16:07;;;;;;;0.83;0.60;;;;;;;22.51;68.64;94883.22;5113124;28;20446;-55
2022/11/19 10:18:48;;;;;;;4.47;1.00;;;;;;;22.81;69.46;94884.25;5112765;28;20420;-54
2022/11/19 10:21:25;;;;;;;0.53;0.50;;;;;;;22.07;69.33;94877.28;5113120;28;20806;-55
2022/11/19 10:24:03;;;;;;;0.50;0.47;;;;;;;22.16;70.48;94877.09;5113176;28;20826;-55
2022/11/19 10:26:35;;;;;;;0.40;0.30;;;;;;;21.71;71.22;94869.47;5112472;27;20649;-55
2022/11/19 10:29:14;;;;;;;9.53;0.57;;;;;;;21.86;70.78;94864.06;5112944;28;20431;-54
2022/11/19 10:31:46;;;;;;;1.63;0.63;;;;;;;22.32;69.00;94862.38;5112777;28;20475;-54
2022/11/19 10:34:22;;;;;;;0.70;0.70;;;;;;;22.35;66.01;94866.31;5112810;28;20430;-54
2022/11/19 10:36:55;;;;;;;0.70;0.70;;;;;;;22.45;66.31;94853.03;5113092;28;20664;-55
2022/11/19 10:39:29;;;;;;;1.27;0.87;;;;;;;21.56;68.39;94854.06;5112611;28;20788;-55
2022/11/19 10:42:05;;;;;;;0.97;0.97;;;;;;;22.29;68.89;94846.91;5112544;28;20464;-56
2022/11/19 10:44:41;;;;;;;0.80;0.67;;;;;;;22.28;67.53;94849.97;5113114;28;20428;-55
2022/11/19 10:47:16;;;;;;;0.40;0.30;;;;;;;22.39;67.90;94848.28;5112920;28;20432;-55
2022/11/19 10:49:45;;;;;;;2.90;0.97;;;;;;;22.06;67.08;94868.38;5112612;28;20945;-55
2022/11/19 10:52:26;;;;;;;0.40;0.30;;;;;;;22.49;68.41;94858.50;5112437;28;20506;-56
2022/11/19 10:54:59;;;;;;;0.40;0.20;;;;;;;22.54;66.67;94853.56;5112307;28;20434;-56
2022/11/19 10:57:31;;;;;;;0.97;0.50;;;;;;;22.72;66.43;94843.94;5112556;28;20441;-55
2022/11/19 11:00:02;;;;;;;0.50;0.40;;;;;;;23.12;68.03;94826.53;5112450;28;20420;-54
2022/11/19 11:02:36;;;;;;;1.17;0.67;;;;;;;24.19;63.25;94835.94;5112283;28;20447;-55
2022/11/19 11:05:09;;;;;;;0.43;0.37;;;;;;;24.61;63.35;94831.09;5112754;28;20447;-56
2022/11/19 11:07:52;;;;;;;0.60;0.30;;;;;;;24.12;62.16;94826.94;5112389;28;20446;-56
2022/11/19 11:10:41;;;;;;;0.40;0.30;;;;;;;23.62;65.84;94831.63;5112619;28;20495;-55
2022/11/19 11:16:13;;;;;;;0.53;0.47;;;;;;;22.91;67.51;94829.63;5112092;28;20463;-55
2022/11/19 11:18:42;;;;;;;0.53;0.40;;;;;;;22.75;65.53;94834.34;5112047;28;20423;-55
2022/11/19 11:21:12;;;;;;;1.43;1.33;;;;;;;22.47;68.18;94833.75;5112255;28;20439;-55
2022/11/19 11:23:50;;;;;;;0.80;0.70;;;;;;;21.92;69.89;94834.91;5112352;28;20440;-55
2022/11/19 11:26:22;;;;;;;0.50;0.40;;;;;;;22.24;70.17;94828.28;5112213;28;20434;-55
2022/11/19 11:28:56;;;;;;;0.60;0.50;;;;;;;22.21;69.34;94837.09;5112036;28;20432;-55
2022/11/19 11:31:35;;;;;;;0.83;0.83;;;;;;;22.01;69.05;94827.41;5112413;28;20799;-55
2022/11/19 11:34:05;;;;;;;1.30;0.70;;;;;;;21.38;69.17;94757.38;5111922;28;20482;-54
2022/11/19 11:36:37;;;;;;;0.40;0.30;;;;;;;22.33;69.72;94834.25;5111946;28;20436;-54
2022/11/19 11:39:06;;;;;;;0.53;0.47;;;;;;;22.61;66.93;94839.44;5112094;28;20912;-56
2022/11/19 11:41:40;;;;;;;0.77;0.60;;;;;;;21.88;67.26;94842.16;5112216;28;20423;-55
2022/11/19 11:44:32;;;;;;;0.43;0.40;;;;;;;22.07;68.61;94832.19;5111821;28;20423;-54
2022/11/19 11:47:05;;;;;;;0.50;0.30;;;;;;;22.21;68.25;94839.03;5112050;28;20788;-55
2022/11/19 11:49:36;;;;;;;0.47;0.30;;;;;;;22.13;66.22;94846.19;5111782;28;20443;-55
2022/11/19 11:52:18;;;;;;;3.70;1.17;;;;;;;20.92;71.05;94837.06;5112137;28;20427;-56
2022/11/19 11:55:05;;;;;;;0.50;0.50;;;;;;;21.30;70.95;94838.47;5111560;28;20510;-56
2022/11/19 11:57:35;;;;;;;0.50;0.50;;;;;;;21.54;70.49;94840.94;5111264;28;20443;-56
2022/11/19 12:00:31;;;;;;;1.17;1.07;;;;;;;21.12;70.15;94839.94;5111630;28;20516;-56
2022/11/19 12:03:03;;;;;;;1.00;1.00;;;;;;;21.33;72.24;94843.91;5111756;28;20510;-56
2022/11/19 12:05:44;;;;;;;0.60;0.40;;;;;;;21.51;73.25;94847.03;5112058;28;20442;-56
2022/11/19 12:08:30;;;;;;;0.40;0.30;;;;;;;21.48;70.84;94845.81;5114858;28;20435;-56
2022/11/19 12:11:04;;;;;;;0.50;0.43;;;;;;;21.49;72.44;94843.91;5115625;28;20430;-56
2022/11/19 12:13:58;;;;;;;0.60;0.60;;;;;;;21.59;71.63;94848.00;5115500;28;20986;-56